Time;durP1;ratioP1;P1;durP2;ratioP2;P2;SDS_P1;SDS_P2;PMS_P1;PMS_P2;Temp;Humidity;BMP_temperature;BMP_pressure;BME280_temperature;BME280_humidity;BME280_pressure;Samples;Min_cycle;Max_cycle;Signal;HPM_P1;HPM_P2
2022/01/04 00:01:23;;;;;;;10.53;8.97;;;;;;;11.36;51.51;94507.88;4968113;28;20211;-75
2022/01/04 00:03:50;;;;;;;13.50;10.03;;;;;;;11.26;51.70;94505.66;4967368;29;20246;-75
2022/01/04 00:06:16;;;;;;;15.27;10.90;;;;;;;10.90;53.46;94498.19;4967934;29;20186;-74
2022/01/04 00:08:42;;;;;;;13.07;9.20;;;;;;;10.52;53.72;94501.34;4967597;29;20418;-75
2022/01/04 00:11:14;;;;;;;9.90;8.53;;;;;;;10.50;53.51;94495.50;4950121;29;20233;-75
2022/01/04 00:13:40;;;;;;;13.40;10.50;;;;;;;10.44;54.02;94496.31;4968276;29;20198;-75
2022/01/04 00:16:07;;;;;;;13.87;9.60;;;;;;;10.46;54.19;94499.53;4968307;29;20414;-75
2022/01/04 00:18:34;;;;;;;16.80;10.43;;;;;;;10.42;54.19;94493.06;4967871;29;20497;-75
2022/01/04 00:21:00;;;;;;;15.90;9.97;;;;;;;10.60;54.22;94495.13;4967820;29;20482;-75
2022/01/04 00:23:26;;;;;;;10.40;9.30;;;;;;;10.67;53.33;94496.75;4967758;29;20441;-75
2022/01/04 00:25:51;;;;;;;11.20;9.57;;;;;;;10.44;53.99;94512.00;4966909;29;20468;-76
2022/01/04 00:28:17;;;;;;;13.70;9.93;;;;;;;10.53;53.63;94511.63;4967319;29;20429;-75
2022/01/04 00:30:43;;;;;;;10.13;9.10;;;;;;;10.62;53.18;94514.84;4950003;29;20211;-75
2022/01/04 00:33:11;;;;;;;16.47;12.20;;;;;;;10.45;54.59;94529.28;4950075;29;20207;-75
2022/01/04 00:35:38;;;;;;;18.33;11.53;;;;;;;10.53;54.27;94521.28;4967209;29;20286;-75
2022/01/04 00:38:04;;;;;;;13.40;9.87;;;;;;;10.51;54.42;94533.75;4967391;29;20517;-75
2022/01/04 00:40:30;;;;;;;13.27;10.50;;;;;;;10.19;54.69;94533.41;4967295;29;20457;-76
2022/01/04 00:42:57;;;;;;;13.03;10.60;;;;;;;10.07;55.21;94540.16;4967363;29;20422;-76
2022/01/04 00:45:24;;;;;;;14.87;10.07;;;;;;;9.81;56.74;94543.44;4951752;29;20426;-75
2022/01/04 00:50:21;;;;;;;13.73;8.87;;;;;;;10.31;54.63;94538.91;4970123;29;20829;-75
2022/01/04 00:52:47;;;;;;;13.73;9.60;;;;;;;10.27;54.61;94540.28;4970895;29;20422;-74
2022/01/04 00:55:13;;;;;;;13.63;10.13;;;;;;;10.09;54.88;94525.09;4970299;29;20425;-74
2022/01/04 00:57:39;;;;;;;13.87;10.50;;;;;;;10.00;55.65;94521.03;4970226;29;20414;-74
2022/01/04 01:00:07;;;;;;;9.30;8.30;;;;;;;9.89;55.87;94511.94;4970702;28;20222;-75
2022/01/04 01:02:33;;;;;;;14.80;10.93;;;;;;;10.10;55.46;94511.81;4953199;29;20829;-76
2022/01/04 01:04:58;;;;;;;13.40;10.40;;;;;;;10.28;54.68;94513.94;4952027;29;20466;-76
2022/01/04 01:07:24;;;;;;;13.10;10.27;;;;;;;9.86;55.71;94518.34;4970225;29;20437;-75
2022/01/04 01:10:10;;;;;;;16.63;10.73;;;;;;;9.68;56.21;94505.78;4953546;29;20634;-75
2022/01/04 01:12:35;;;;;;;19.10;11.63;;;;;;;9.62;56.18;94500.50;4970644;29;20222;-75
2022/01/04 01:15:03;;;;;;;16.47;12.00;;;;;;;9.71;57.11;94504.59;4953243;29;20439;-76
2022/01/04 01:17:29;;;;;;;17.87;12.27;;;;;;;9.63;56.92;94496.91;4970195;29;20206;-76
2022/01/04 01:19:54;;;;;;;13.30;11.30;;;;;;;9.46;57.15;94499.81;4970526;29;20425;-76
2022/01/04 01:22:20;;;;;;;14.90;12.33;;;;;;;9.50;57.51;94506.25;4953228;29;20198;-76
2022/01/04 01:24:45;;;;;;;17.83;12.40;;;;;;;9.53;56.94;94505.09;4952848;29;20187;-77
2022/01/04 01:27:11;;;;;;;14.43;10.90;;;;;;;10.00;56.04;94505.34;4952519;29;20230;-76
2022/01/04 01:29:36;;;;;;;18.50;11.10;;;;;;;10.05;54.84;94497.72;4952826;29;20194;-75
2022/01/04 01:32:02;;;;;;;14.87;11.10;;;;;;;9.88;56.00;94495.41;4952402;29;20320;-75
2022/01/04 01:34:27;;;;;;;18.77;11.97;;;;;;;9.42;56.45;94493.34;4952462;29;20195;-75
2022/01/04 01:36:54;;;;;;;16.43;11.20;;;;;;;9.85;55.61;94487.19;4969637;29;20186;-75
2022/01/04 01:39:19;;;;;;;15.70;11.00;;;;;;;9.35;57.67;94492.50;4952370;29;20197;-75
2022/01/04 01:41:44;;;;;;;19.33;11.87;;;;;;;9.54;56.78;94491.84;4969886;29;20490;-76
2022/01/04 01:44:10;;;;;;;18.57;11.77;;;;;;;9.30;56.76;94500.91;4952133;29;20182;-76
2022/01/04 01:46:35;;;;;;;21.37;12.13;;;;;;;9.02;58.20;94507.91;4952330;29;20209;-76
2022/01/04 01:49:01;;;;;;;15.37;12.03;;;;;;;9.25;57.79;94505.88;4969481;29;20293;-76
2022/01/04 01:51:28;;;;;;;12.43;10.73;;;;;;;9.74;55.69;94506.81;4969544;29;20210;-75
2022/01/04 01:53:55;;;;;;;13.33;10.43;;;;;;;9.30;57.00;94503.53;4969730;29;20186;-76
2022/01/04 01:56:20;;;;;;;10.47;9.40;;;;;;;9.23;57.99;94500.06;4951597;29;20415;-75
2022/01/04 01:58:46;;;;;;;12.87;10.47;;;;;;;9.28;57.67;94507.34;4968274;29;20425;-76
2022/01/04 02:01:11;;;;;;;15.50;10.63;;;;;;;9.84;56.15;94502.03;4981472;28;20229;-75
2022/01/04 02:03:38;;;;;;;16.30;11.13;;;;;;;9.94;55.79;94493.84;4988050;28;20201;-76
2022/01/04 02:06:04;;;;;;;13.80;11.80;;;;;;;9.93;56.00;94500.09;4988056;28;20209;-75
2022/01/04 02:08:30;;;;;;;16.30;12.07;;;;;;;9.56;56.93;94505.50;4987817;28;20441;-77
2022/01/04 02:10:58;;;;;;;17.93;14.10;;;;;;;9.47;57.55;94505.84;4987553;28;20241;-75
2022/01/04 02:13:24;;;;;;;18.43;12.60;;;;;;;9.28;57.39;94500.28;4986201;28;20421;-74
2022/01/04 02:15:53;;;;;;;19.63;14.57;;;;;;;9.31;58.06;94497.28;4987480;28;20428;-74
2022/01/04 02:18:18;;;;;;;16.40;13.83;;;;;;;9.18;58.82;94500.63;4986043;28;20529;-74
2022/01/04 02:20:44;;;;;;;17.03;13.13;;;;;;;9.15;58.74;94502.81;4985984;28;20995;-75
2022/01/04 02:23:09;;;;;;;19.10;13.73;;;;;;;9.41;57.53;94490.94;4986349;28;20209;-75
2022/01/04 02:25:35;;;;;;;16.40;14.13;;;;;;;9.08;57.96;94496.72;4986037;28;20297;-75
2022/01/04 02:28:01;;;;;;;18.03;13.03;;;;;;;9.03;59.24;94496.47;4986057;28;20194;-76
2022/01/04 02:30:27;;;;;;;16.00;13.27;;;;;;;9.42;57.04;94495.97;4986239;28;20193;-74
2022/01/04 02:32:53;;;;;;;19.83;13.37;;;;;;;8.98;58.88;94495.22;4987448;28;20181;-75
2022/01/04 02:35:22;;;;;;;16.63;12.60;;;;;;;8.87;58.73;94494.94;4987124;28;20186;-75
2022/01/04 02:37:47;;;;;;;15.40;12.43;;;;;;;9.45;57.15;94498.22;4987528;28;20174;-74
2022/01/04 02:40:13;;;;;;;20.77;13.30;;;;;;;8.79;59.33;94499.28;4987124;28;20433;-74
2022/01/04 02:42:39;;;;;;;17.60;13.63;;;;;;;8.66;58.79;94493.94;4987010;28;20170;-75
2022/01/04 02:45:06;;;;;;;17.47;13.03;;;;;;;8.92;58.48;94487.38;4986682;28;20182;-75
2022/01/04 02:47:31;;;;;;;20.00;13.47;;;;;;;8.78;58.78;94479.41;4987253;28;20484;-75
2022/01/04 02:49:57;;;;;;;19.57;12.80;;;;;;;8.09;61.69;94484.28;4985526;28;20449;-75
2022/01/04 02:52:23;;;;;;;15.43;12.70;;;;;;;8.07;61.35;94496.69;4986972;28;20202;-75
2022/01/04 02:54:48;;;;;;;15.50;11.50;;;;;;;8.64;59.70;94490.72;4987175;28;20268;-75
2022/01/04 02:57:14;;;;;;;18.10;12.10;;;;;;;8.75;59.18;94484.19;4985360;28;20414;-74
2022/01/04 02:59:39;;;;;;;14.23;11.90;;;;;;;8.38;60.02;94476.41;4985296;28;20357;-75
2022/01/04 03:02:05;;;;;;;14.63;11.47;;;;;;;8.42;60.33;94476.03;4986825;28;20266;-75
2022/01/04 03:04:31;;;;;;;17.50;12.40;;;;;;;8.46;60.65;94472.06;4987019;28;20181;-75
2022/01/04 03:06:57;;;;;;;18.33;12.63;;;;;;;8.56;60.32;94473.38;4986424;28;20424;-74
2022/01/04 03:09:22;;;;;;;16.67;12.40;;;;;;;8.91;58.34;94464.84;4986592;28;20473;-75
2022/01/04 03:11:48;;;;;;;14.60;12.27;;;;;;;8.70;59.01;94463.88;4986413;28;20495;-76
2022/01/04 03:14:14;;;;;;;16.27;12.93;;;;;;;8.74;58.83;94459.91;4986358;28;20190;-73
2022/01/04 03:16:39;;;;;;;14.57;13.03;;;;;;;8.62;58.90;94464.00;4984923;28;20178;-73
2022/01/04 03:19:09;;;;;;;16.50;12.90;;;;;;;8.76;58.83;94463.16;4986695;28;20189;-74
2022/01/04 03:21:40;;;;;;;16.63;14.83;;;;;;;8.87;58.48;94472.25;4986323;28;20240;-74
2022/01/04 03:24:07;;;;;;;20.10;13.13;;;;;;;8.41;59.39;94472.59;4986205;28;20479;-74
2022/01/04 03:26:33;;;;;;;17.63;13.63;;;;;;;8.46;60.01;94466.84;4986306;28;20424;-74
2022/01/04 03:29:00;;;;;;;14.90;12.43;;;;;;;8.49;59.97;94464.69;4986285;28;20418;-75
2022/01/04 03:31:29;;;;;;;16.67;13.40;;;;;;;8.45;60.03;94475.69;4986121;28;20468;-75
2022/01/04 03:33:54;;;;;;;19.80;13.50;;;;;;;8.34;60.19;94477.72;4986262;28;20417;-75
2022/01/04 03:36:22;;;;;;;20.03;13.13;;;;;;;8.76;58.85;94475.38;4986322;28;20564;-75
2022/01/04 03:38:48;;;;;;;13.77;12.27;;;;;;;8.76;58.55;94484.03;4984952;28;20240;-75
2022/01/04 03:41:15;;;;;;;16.90;12.90;;;;;;;8.87;58.30;94477.47;4984857;28;20405;-75
2022/01/04 03:43:41;;;;;;;18.70;13.07;;;;;;;8.71;58.45;94490.78;4984626;28;20441;-74
2022/01/04 03:46:07;;;;;;;15.47;12.60;;;;;;;8.51;60.23;94486.16;4985956;28;20421;-75
2022/01/04 03:48:33;;;;;;;17.07;11.93;;;;;;;8.44;59.62;94492.31;4986088;28;20194;-75
2022/01/04 03:50:59;;;;;;;15.57;13.83;;;;;;;8.68;58.93;94489.34;4985937;28;20452;-75
2022/01/04 03:53:25;;;;;;;14.77;13.27;;;;;;;8.40;60.40;94490.06;4985280;28;20448;-75
2022/01/04 03:55:50;;;;;;;16.23;13.33;;;;;;;8.11;60.34;94497.94;4986230;28;20188;-74
2022/01/04 03:58:16;;;;;;;18.20;15.10;;;;;;;8.08;60.84;94493.06;4986169;28;20197;-76
2022/01/04 04:00:41;;;;;;;17.23;14.37;;;;;;;8.55;60.06;94492.63;4984817;28;20315;-76
2022/01/04 04:03:07;;;;;;;23.80;14.90;;;;;;;8.26;60.14;94485.69;4986244;28;20280;-76
2022/01/04 04:05:32;;;;;;;18.23;13.93;;;;;;;8.35;60.47;94483.78;4985529;28;20200;-75
2022/01/04 04:07:57;;;;;;;17.17;14.10;;;;;;;8.22;60.46;94481.81;4986064;28;20248;-75
2022/01/04 04:10:23;;;;;;;18.00;13.43;;;;;;;8.31;60.55;94485.94;4985956;28;20816;-76
2022/01/04 04:12:48;;;;;;;14.63;13.03;;;;;;;8.28;60.46;94485.50;4986083;28;20222;-76
2022/01/04 04:15:14;;;;;;;14.37;12.73;;;;;;;8.59;59.28;94480.03;4986355;28;20589;-75
2022/01/04 04:17:39;;;;;;;15.90;13.23;;;;;;;8.62;58.78;94482.25;4985976;28;20209;-76
2022/01/04 04:20:06;;;;;;;15.30;12.80;;;;;;;8.30;59.47;94476.50;4987586;28;20201;-75
2022/01/04 04:22:32;;;;;;;16.07;12.37;;;;;;;8.34;59.18;94474.31;4989563;28;20207;-75
2022/01/04 04:24:57;;;;;;;17.47;12.77;;;;;;;8.25;59.32;94480.63;4989215;28;20527;-76
2022/01/04 04:27:23;;;;;;;14.60;12.30;;;;;;;8.25;59.88;94486.66;4988084;28;20205;-74
2022/01/04 04:29:48;;;;;;;15.47;12.13;;;;;;;8.31;59.60;94493.75;4989204;28;20307;-76
2022/01/04 04:32:14;;;;;;;14.27;12.73;;;;;;;8.31;60.28;94492.94;4984453;28;20562;-74
2022/01/04 04:34:39;;;;;;;15.97;13.40;;;;;;;8.45;59.15;94489.53;4990095;28;20208;-75
2022/01/04 04:37:05;;;;;;;16.33;13.53;;;;;;;8.75;58.80;94492.81;4987696;28;20190;-75
2022/01/04 04:39:31;;;;;;;15.40;12.00;;;;;;;8.69;57.65;94497.97;4989180;28;20220;-76
2022/01/04 04:41:57;;;;;;;13.70;12.20;;;;;;;8.31;59.16;94516.41;4989128;28;20587;-75
2022/01/04 04:44:22;;;;;;;17.13;14.00;;;;;;;8.15;59.33;94517.44;4989000;28;20646;-75
2022/01/04 04:46:49;;;;;;;17.70;13.83;;;;;;;8.40;58.88;94515.28;4987254;28;20182;-76
2022/01/04 04:49:15;;;;;;;14.83;13.30;;;;;;;8.49;58.95;94513.44;4988639;28;20198;-74
2022/01/04 04:51:41;;;;;;;20.83;13.50;;;;;;;8.71;57.81;94522.09;4988674;28;20469;-74
2022/01/04 04:54:06;;;;;;;19.57;13.43;;;;;;;8.35;58.53;94510.66;4987406;28;20421;-74
2022/01/04 04:56:34;;;;;;;20.43;13.90;;;;;;;8.23;59.37;94519.91;4988560;28;20320;-74
2022/01/04 04:59:00;;;;;;;19.77;14.00;;;;;;;7.89;59.99;94518.72;4988669;28;20185;-75
2022/01/04 05:01:25;;;;;;;16.13;13.67;;;;;;;7.71;60.60;94515.66;4969614;28;20488;-75
2022/01/04 05:03:52;;;;;;;16.53;13.13;;;;;;;8.01;60.38;94512.06;4951479;29;20233;-75
2022/01/04 05:06:18;;;;;;;15.40;12.63;;;;;;;8.09;59.57;94518.16;4951580;29;20262;-75
2022/01/04 05:08:44;;;;;;;17.90;14.00;;;;;;;8.04;60.09;94520.50;4968757;29;20426;-74
2022/01/04 05:11:09;;;;;;;17.60;12.80;;;;;;;7.85;60.89;94522.66;4951623;29;20442;-75
2022/01/04 05:13:34;;;;;;;21.17;14.83;;;;;;;7.35;61.34;94518.97;4969140;29;20617;-74
2022/01/04 05:16:00;;;;;;;19.10;14.83;;;;;;;7.13;62.49;94520.63;4951912;29;20265;-75
2022/01/04 05:18:25;;;;;;;20.77;14.30;;;;;;;7.48;62.51;94519.16;4969339;29;20187;-75
2022/01/04 05:20:51;;;;;;;18.83;13.53;;;;;;;7.62;61.84;94510.53;4968501;29;20268;-75
2022/01/04 05:23:16;;;;;;;18.13;15.40;;;;;;;7.51;61.77;94511.00;4963769;29;20192;-75
2022/01/04 05:25:42;;;;;;;18.50;14.67;;;;;;;7.62;62.00;94502.72;4950605;29;20194;-75
2022/01/04 05:28:07;;;;;;;23.10;15.90;;;;;;;7.78;61.84;94500.94;4969201;29;20202;-76
2022/01/04 05:30:33;;;;;;;16.80;13.13;;;;;;;7.80;61.48;94496.34;4950172;29;20190;-75
2022/01/04 05:32:58;;;;;;;18.60;14.90;;;;;;;7.88;60.79;94505.88;4968770;29;20202;-75
2022/01/04 05:35:23;;;;;;;20.37;14.47;;;;;;;8.42;59.23;94502.13;4951559;29;20189;-75
2022/01/04 05:37:49;;;;;;;18.63;14.47;;;;;;;8.15;59.88;94501.78;4968658;29;20175;-76
2022/01/04 05:40:14;;;;;;;16.03;13.03;;;;;;;8.55;59.02;94502.25;4968261;29;20183;-75
2022/01/04 05:42:40;;;;;;;22.57;14.07;;;;;;;8.51;58.41;94504.41;4967981;29;20198;-75
2022/01/04 05:45:06;;;;;;;23.40;16.97;;;;;;;8.05;60.67;94503.88;4950922;29;20194;-77
2022/01/04 05:47:31;;;;;;;22.87;18.23;;;;;;;7.75;60.83;94496.09;4968562;29;20198;-76
2022/01/04 05:49:57;;;;;;;19.20;16.20;;;;;;;7.76;61.22;94497.72;4968327;29;20430;-76
2022/01/04 05:52:22;;;;;;;21.57;17.50;;;;;;;7.77;61.41;94499.31;4950719;29;20636;-76
2022/01/04 05:54:49;;;;;;;25.20;16.50;;;;;;;7.77;61.24;94499.31;4950219;29;20226;-76
2022/01/04 05:57:15;;;;;;;21.83;16.80;;;;;;;7.78;61.12;94495.72;4947857;29;20197;-76
2022/01/04 05:59:41;;;;;;;21.20;18.40;;;;;;;7.89;61.46;94487.47;4952272;29;20516;-77
2022/01/04 06:02:06;;;;;;;31.77;19.87;;;;;;;7.76;61.35;94493.31;4968397;29;20430;-75
2022/01/04 06:04:32;;;;;;;24.43;16.93;;;;;;;8.13;60.21;94493.34;4950914;29;20275;-76
2022/01/04 06:06:58;;;;;;;26.13;18.73;;;;;;;7.85;61.43;94496.59;4968140;29;20254;-76
2022/01/04 06:09:28;;;;;;;25.70;17.93;;;;;;;7.90;61.80;94494.28;4967700;29;20202;-77
2022/01/04 06:17:07;;;;;;;21.50;18.33;;;;;;;7.78;60.77;94496.53;4967563;29;20605;-75
2022/01/04 06:19:32;;;;;;;32.37;23.67;;;;;;;7.02;63.73;94494.03;4949902;29;20549;-76
2022/01/04 06:21:57;;;;;;;28.80;22.77;;;;;;;7.45;62.28;94500.47;4967837;29;20418;-77
2022/01/04 06:24:23;;;;;;;29.13;23.10;;;;;;;7.71;61.78;94500.84;4949838;29;20579;-75
2022/01/04 06:26:48;;;;;;;34.40;24.30;;;;;;;7.84;61.67;94489.78;4967523;29;20195;-76
2022/01/04 06:29:14;;;;;;;35.47;26.07;;;;;;;8.07;60.21;94481.84;4965940;29;20281;-75
2022/01/04 06:31:41;;;;;;;31.97;24.00;;;;;;;8.12;60.69;94481.28;4967507;29;20221;-75
2022/01/04 06:34:07;;;;;;;24.53;19.70;;;;;;;8.23;60.03;94478.22;4967677;29;20190;-76
2022/01/04 06:36:33;;;;;;;28.00;19.90;;;;;;;8.30;60.03;94476.50;4950268;29;20505;-76
2022/01/04 06:38:58;;;;;;;28.00;21.43;;;;;;;8.28;59.86;94475.88;4967505;29;20925;-77
2022/01/04 06:41:24;;;;;;;26.50;19.97;;;;;;;8.39;60.00;94478.00;4950451;28;20414;-76
2022/01/04 06:43:49;;;;;;;28.53;20.63;;;;;;;8.51;59.36;94485.38;4967021;29;20582;-77
2022/01/04 06:46:15;;;;;;;21.93;18.80;;;;;;;8.70;58.73;94479.53;4967229;29;20178;-76
2022/01/04 06:48:41;;;;;;;22.27;19.33;;;;;;;8.84;58.50;94484.88;4967387;29;20183;-76
2022/01/04 06:51:08;;;;;;;26.50;20.70;;;;;;;8.70;57.80;94479.53;4966911;29;20234;-76
2022/01/04 06:53:34;;;;;;;32.07;22.70;;;;;;;8.74;59.08;94479.97;4949494;29;20449;-76
2022/01/04 06:56:00;;;;;;;25.73;20.07;;;;;;;8.97;57.34;94474.53;4967354;29;20410;-76
2022/01/04 06:58:25;;;;;;;28.10;21.07;;;;;;;8.93;58.08;94484.53;4967025;29;20489;-76
2022/01/04 07:00:51;;;;;;;30.80;22.57;;;;;;;9.28;56.87;94486.44;4963044;28;20223;-76
2022/01/04 07:03:16;;;;;;;30.37;22.37;;;;;;;8.97;57.48;94487.59;4948377;29;20187;-75
2022/01/04 07:05:42;;;;;;;30.80;21.43;;;;;;;8.40;58.80;94495.28;4948121;29;20227;-75
2022/01/04 07:08:07;;;;;;;28.83;21.33;;;;;;;8.52;59.68;94493.00;4930796;29;20262;-76
2022/01/04 07:10:33;;;;;;;28.87;20.57;;;;;;;8.53;58.65;94494.59;4930818;29;20183;-76
2022/01/04 07:12:58;;;;;;;27.47;21.77;;;;;;;8.61;59.17;94496.28;4948262;29;20607;-76
2022/01/04 07:15:24;;;;;;;33.77;22.60;;;;;;;8.85;58.03;94499.53;4963823;29;20201;-76
2022/01/04 07:17:49;;;;;;;31.53;23.20;;;;;;;9.00;58.37;94492.44;4967488;29;20266;-76
2022/01/04 07:20:15;;;;;;;31.00;23.37;;;;;;;8.86;58.40;94493.31;4956062;29;20769;-76
2022/01/04 07:22:40;;;;;;;31.60;24.60;;;;;;;9.02;58.11;94485.22;4961930;29;20186;-76
2022/01/04 07:25:06;;;;;;;33.90;27.27;;;;;;;8.92;58.00;94492.59;4966927;29;20234;-76
2022/01/04 07:27:32;;;;;;;34.70;26.83;;;;;;;9.04;58.29;94493.69;4949428;29;20191;-76
2022/01/04 07:29:59;;;;;;;45.47;28.80;;;;;;;9.27;57.13;94485.63;4949357;29;20449;-76
2022/01/04 07:32:24;;;;;;;37.60;28.80;;;;;;;9.17;57.57;94479.94;4966704;29;20460;-76
2022/01/04 07:34:50;;;;;;;39.40;28.20;;;;;;;9.11;57.88;94481.50;4949738;29;20430;-76
2022/01/04 07:37:15;;;;;;;39.40;31.33;;;;;;;9.30;57.66;94489.66;4966929;29;20610;-76
2022/01/04 07:39:41;;;;;;;39.63;30.40;;;;;;;9.35;57.36;94488.09;4964522;29;20186;-76
2022/01/04 07:42:06;;;;;;;38.60;30.00;;;;;;;9.60;57.34;94485.03;4966926;29;20294;-75
2022/01/04 07:44:33;;;;;;;35.87;27.10;;;;;;;9.65;56.57;94485.25;4966864;29;20186;-76
2022/01/04 07:46:58;;;;;;;40.33;30.20;;;;;;;9.92;56.14;94474.94;4966773;29;20190;-76
2022/01/04 07:49:23;;;;;;;45.70;33.70;;;;;;;9.94;55.41;94479.00;4966276;29;20445;-75
2022/01/04 07:51:49;;;;;;;44.00;34.00;;;;;;;9.80;55.61;94479.13;4949342;29;20206;-76
2022/01/04 07:54:14;;;;;;;46.53;36.00;;;;;;;9.77;56.22;94480.31;4950778;29;20198;-76
2022/01/04 07:56:40;;;;;;;45.53;37.30;;;;;;;10.10;55.37;94492.72;4951671;29;20186;-76
2022/01/04 07:59:05;;;;;;;50.43;39.60;;;;;;;9.88;55.53;94495.41;4951018;29;20252;-76
2022/01/04 08:01:31;;;;;;;53.07;40.93;;;;;;;9.58;56.92;94494.88;4966068;29;20205;-76
2022/01/04 08:03:59;;;;;;;53.03;40.70;;;;;;;9.38;57.89;94486.91;4970458;29;20220;-75
2022/01/04 08:06:24;;;;;;;55.70;42.10;;;;;;;9.31;57.18;94486.84;4970006;29;20437;-76
2022/01/04 08:08:50;;;;;;;54.23;40.00;;;;;;;9.45;57.14;94481.75;4948963;29;20434;-76
2022/01/04 08:11:15;;;;;;;54.37;42.50;;;;;;;9.70;56.37;94475.03;4934115;29;20203;-76
2022/01/04 08:13:40;;;;;;;53.70;39.50;;;;;;;9.91;55.94;94475.94;4934234;29;20211;-76
2022/01/04 08:16:06;;;;;;;51.90;42.37;;;;;;;9.94;55.92;94481.59;4934057;29;20184;-77
2022/01/04 08:18:31;;;;;;;54.53;42.53;;;;;;;10.20;55.16;94482.69;4951172;29;20187;-77
2022/01/04 08:20:58;;;;;;;53.17;39.47;;;;;;;10.07;55.58;94474.81;4951403;29;20247;-76
2022/01/04 08:23:27;;;;;;;43.10;34.70;;;;;;;9.92;55.74;94475.75;4933747;29;20223;-77
2022/01/04 08:25:54;;;;;;;48.37;37.90;;;;;;;9.57;56.96;94478.38;4950979;29;20419;-77
2022/01/04 08:28:20;;;;;;;46.70;35.70;;;;;;;9.92;55.14;94477.56;4946100;29;20426;-76
2022/01/04 08:30:45;;;;;;;39.50;31.47;;;;;;;10.20;54.78;94480.09;4952389;29;20762;-76
2022/01/04 08:33:11;;;;;;;34.60;28.80;;;;;;;9.65;55.90;94472.19;4956564;29;20198;-76
2022/01/04 08:35:38;;;;;;;34.70;29.17;;;;;;;9.93;55.14;94474.75;4968284;29;20209;-77
2022/01/04 08:38:05;;;;;;;33.90;27.47;;;;;;;10.25;54.64;94467.25;4970184;29;20218;-76
2022/01/04 08:40:30;;;;;;;33.20;26.80;;;;;;;10.48;54.17;94466.91;4969467;29;20490;-76
2022/01/04 08:42:56;;;;;;;34.50;28.60;;;;;;;10.53;54.13;94464.53;4969769;28;20510;-76
2022/01/04 08:45:23;;;;;;;32.13;27.30;;;;;;;10.70;53.30;94451.88;4968751;29;20258;-76
2022/01/04 08:47:49;;;;;;;33.40;27.37;;;;;;;10.59;53.53;94449.84;4952347;29;20189;-76
2022/01/04 08:50:15;;;;;;;33.87;26.40;;;;;;;10.61;53.99;94455.69;4969318;29;20519;-76
2022/01/04 08:52:41;;;;;;;35.53;28.90;;;;;;;10.41;53.41;94462.69;4969460;29;21039;-75
2022/01/04 08:55:07;;;;;;;41.17;31.33;;;;;;;10.71;53.51;94456.09;4969575;29;20281;-76
2022/01/04 08:57:33;;;;;;;43.20;34.30;;;;;;;10.82;53.75;94469.59;4969786;29;20209;-76
2022/01/04 08:59:59;;;;;;;42.27;34.70;;;;;;;10.80;53.30;94466.38;4959894;28;20458;-77
2022/01/04 09:02:25;;;;;;;45.87;33.93;;;;;;;10.20;55.28;94468.81;4976111;28;20193;-77
2022/01/04 09:04:51;;;;;;;46.20;33.37;;;;;;;10.60;54.30;94463.72;4970847;28;20186;-76
2022/01/04 09:07:17;;;;;;;40.90;33.00;;;;;;;10.68;53.43;94461.75;4969302;28;20837;-77
2022/01/04 09:09:43;;;;;;;37.40;31.80;;;;;;;10.67;53.78;94454.88;4974390;28;20425;-76
2022/01/04 09:12:08;;;;;;;40.77;31.47;;;;;;;10.65;53.80;94451.66;4987236;28;20835;-76
2022/01/04 09:15:28;;;;;;;34.30;29.20;;;;;;;10.83;53.00;94443.22;4987255;28;20189;-76
2022/01/04 09:20:12;;;;;;;33.47;27.60;;;;;;;10.97;52.78;94441.41;4988437;28;20439;-75
2022/01/04 09:22:38;;;;;;;43.87;29.30;;;;;;;11.02;53.36;94439.00;4988365;28;20413;-76
2022/01/04 09:25:05;;;;;;;33.47;27.80;;;;;;;11.12;53.10;94428.13;4988567;28;20453;-76
2022/01/04 09:27:31;;;;;;;35.80;28.27;;;;;;;11.47;52.70;94417.38;5003416;28;20946;-77
2022/01/04 09:29:57;;;;;;;41.47;29.13;;;;;;;11.46;53.14;94406.09;5003056;28;20457;-76
2022/01/04 09:32:22;;;;;;;38.00;28.47;;;;;;;11.72;52.53;94404.41;4988058;28;20197;-76
2022/01/04 09:34:48;;;;;;;39.77;29.80;;;;;;;12.08;51.70;94382.91;4988283;28;20189;-75
2022/01/04 09:37:14;;;;;;;35.73;28.13;;;;;;;12.44;50.35;94396.41;4986408;28;20238;-76
2022/01/04 09:39:43;;;;;;;34.60;27.60;;;;;;;13.02;47.61;94387.50;4968691;28;20422;-76
2022/01/04 09:42:09;;;;;;;31.00;27.23;;;;;;;12.19;48.98;94373.56;4967388;28;20418;-77
2022/01/04 09:44:35;;;;;;;45.33;28.93;;;;;;;13.18;47.42;94380.88;4967864;28;20822;-76
2022/01/04 09:47:02;;;;;;;40.17;30.10;;;;;;;13.23;47.77;94368.72;4973511;28;20209;-76
2022/01/04 09:49:29;;;;;;;35.33;27.70;;;;;;;13.70;47.68;94363.00;4986425;28;20460;-75
2022/01/04 09:51:56;;;;;;;34.40;27.33;;;;;;;12.65;48.32;94367.22;4987637;28;20460;-76
2022/01/04 09:54:27;;;;;;;38.57;28.63;;;;;;;12.95;47.98;94358.66;4987570;28;20417;-76
2022/01/04 09:56:53;;;;;;;36.27;26.20;;;;;;;13.71;47.21;94367.22;4985935;28;20425;-76
2022/01/04 09:59:20;;;;;;;27.00;23.67;;;;;;;12.64;48.22;94355.09;4984178;28;20449;-76
2022/01/04 10:01:51;;;;;;;26.93;22.73;;;;;;;13.12;46.98;94339.72;4968052;29;20517;-76
2022/01/04 10:04:23;;;;;;;29.43;24.27;;;;;;;14.10;45.71;94333.53;4968237;29;20845;-76
2022/01/04 10:07:10;;;;;;;29.60;23.80;;;;;;;14.36;46.09;94321.84;4950776;29;20442;-76
2022/01/04 10:09:45;;;;;;;25.50;22.80;;;;;;;14.92;43.19;94318.94;4950855;29;20419;-76
2022/01/04 10:12:16;;;;;;;24.47;20.33;;;;;;;15.24;42.81;94314.13;4950293;29;20466;-76
2022/01/04 10:14:44;;;;;;;23.87;20.27;;;;;;;15.34;42.25;94301.13;4950457;29;20518;-76
2022/01/04 10:17:22;;;;;;;23.93;19.70;;;;;;;15.40;41.35;94308.13;4966577;28;20435;-76
2022/01/04 10:19:56;;;;;;;28.10;20.63;;;;;;;15.38;41.67;94299.63;4967892;29;20409;-76
2022/01/04 10:22:24;;;;;;;27.07;21.07;;;;;;;15.48;41.80;94306.16;4950032;29;20431;-76
2022/01/04 10:25:04;;;;;;;24.20;21.53;;;;;;;15.85;40.56;94301.38;4967371;29;20406;-76
2022/01/04 10:27:50;;;;;;;26.93;21.63;;;;;;;16.28;39.83;94292.13;4968081;29;20433;-76
2022/01/04 10:30:33;;;;;;;24.30;20.47;;;;;;;16.14;39.72;94286.34;4950555;29;20485;-76
2022/01/04 10:33:06;;;;;;;22.00;19.10;;;;;;;16.40;39.64;94284.91;4967412;29;20465;-76
2022/01/04 10:35:43;;;;;;;24.00;19.80;;;;;;;16.57;38.93;94277.00;4967088;29;20422;-76
2022/01/04 10:38:17;;;;;;;21.20;18.60;;;;;;;16.57;38.97;94273.56;4968124;29;20425;-75
2022/01/04 10:41:01;;;;;;;20.53;17.50;;;;;;;16.40;39.08;94269.06;4950170;29;20427;-74
2022/01/04 10:43:32;;;;;;;19.07;17.03;;;;;;;16.40;38.69;94265.63;4967775;29;20485;-76
2022/01/04 10:46:01;;;;;;;22.80;18.40;;;;;;;15.90;40.31;94272.44;4947633;29;20429;-76
2022/01/04 10:48:32;;;;;;;25.83;20.13;;;;;;;16.33;39.05;94268.44;4948060;29;20422;-76
2022/01/04 10:51:07;;;;;;;21.83;19.57;;;;;;;16.57;38.87;94263.78;4948233;29;20458;-77
2022/01/04 10:53:38;;;;;;;25.20;22.40;;;;;;;17.45;36.69;94262.34;4930876;29;20473;-76
2022/01/04 10:56:10;;;;;;;23.17;20.83;;;;;;;16.91;37.79;94263.78;4948099;29;20435;-76
2022/01/04 10:58:47;;;;;;;25.30;21.20;;;;;;;17.03;37.73;94261.03;4930818;29;20495;-77
2022/01/04 11:01:21;;;;;;;30.07;23.77;;;;;;;17.16;37.59;94258.03;4947816;29;20454;-76
2022/01/04 11:03:56;;;;;;;23.87;21.30;;;;;;;17.23;36.73;94243.84;4960201;29;20738;-76
2022/01/04 11:06:35;;;;;;;24.73;22.00;;;;;;;17.33;36.60;94259.84;4949879;29;20870;-77
2022/01/04 11:09:01;;;;;;;25.70;22.97;;;;;;;17.17;36.82;94250.91;4949649;29;20454;-76
2022/01/04 11:11:27;;;;;;;24.53;19.40;;;;;;;16.94;36.55;94252.72;4946765;29;20462;-76
2022/01/04 11:13:53;;;;;;;24.63;22.03;;;;;;;16.92;37.36;94249.53;4964309;29;20430;-76
2022/01/04 11:16:22;;;;;;;21.63;19.40;;;;;;;17.02;36.83;94245.44;4963523;29;20415;-76
2022/01/04 11:18:51;;;;;;;23.53;20.20;;;;;;;17.32;35.96;94237.06;4947790;29;20258;-76
2022/01/04 11:21:21;;;;;;;26.70;21.23;;;;;;;17.35;35.93;94241.88;4967281;29;20422;-76
2022/01/04 11:23:48;;;;;;;25.07;22.43;;;;;;;17.12;37.19;94242.91;4966920;29;20422;-77
2022/01/04 11:26:15;;;;;;;33.93;26.13;;;;;;;16.82;37.33;94237.97;4966055;29;20422;-76
2022/01/04 11:28:43;;;;;;;33.77;30.30;;;;;;;17.17;36.88;94232.41;4957891;29;20442;-76
2022/01/04 11:31:46;;;;;;;32.60;26.93;;;;;;;16.59;37.40;94226.56;4966178;29;20454;-77